Time;durP1;ratioP1;P1;durP2;ratioP2;P2;SDS_P1;SDS_P2;PMS_P1;PMS_P2;Temp;Humidity;BMP_temperature;BMP_pressure;BME280_temperature;BME280_humidity;BME280_pressure;Samples;Min_cycle;Max_cycle;Signal;HPM_P1;HPM_P2
2022/11/02 00:00:41;;;;;;;0.60;0.60;;;;;;;;;;1804072;77;26287;-49
2022/11/02 00:03:08;;;;;;;0.50;0.50;;;;;;;;;;1808399;77;26357;-50
2022/11/02 00:05:36;;;;;;;0.50;0.50;;;;;;;;;;1804411;77;26298;-52
2022/11/02 00:08:03;;;;;;;0.50;0.50;;;;;;;;;;1837366;76;26290;-51
2022/11/02 00:10:30;;;;;;;0.50;0.50;;;;;;;;;;1816582;77;26280;-52
2022/11/02 00:12:58;;;;;;;0.50;0.50;;;;;;;;;;1821942;77;26281;-50
2022/11/02 00:15:26;;;;;;;0.50;0.50;;;;;;;;;;1854316;76;26798;-49
2022/11/02 00:17:55;;;;;;;0.50;0.50;;;;;;;;;;1853800;76;26255;-52
2022/11/02 00:20:24;;;;;;;0.75;0.50;;;;;;;;;;1837648;76;26239;-50
2022/11/02 00:22:52;;;;;;;0.50;0.50;;;;;;;;;;1848318;76;26219;-51
2022/11/02 00:25:21;;;;;;;0.50;0.50;;;;;;;;;;1844728;76;26829;-51
2022/11/02 00:27:48;;;;;;;0.45;0.45;;;;;;;;;;1838426;76;26215;-53
2022/11/02 00:30:15;;;;;;;0.55;0.55;;;;;;;;;;1845109;76;26251;-54
2022/11/02 00:32:43;;;;;;;0.60;0.60;;;;;;;;;;1836071;76;25684;-50
2022/11/02 00:35:10;;;;;;;0.50;0.50;;;;;;;;;;1844602;76;26343;-50
2022/11/02 00:37:37;;;;;;;0.60;0.60;;;;;;;;;;1845199;76;26314;-53
2022/11/02 00:40:05;;;;;;;0.50;0.50;;;;;;;;;;1851161;76;26299;-54
2022/11/02 00:42:33;;;;;;;0.50;0.50;;;;;;;;;;1842301;76;26329;-50
2022/11/02 00:45:00;;;;;;;0.55;0.55;;;;;;;;;;1837254;76;26269;-54
2022/11/02 00:47:27;;;;;;;0.40;0.40;;;;;;;;;;1842936;76;26255;-51
2022/11/02 00:49:54;;;;;;;0.53;0.53;;;;;;;;;;1844895;76;25240;-49
2022/11/02 00:52:22;;;;;;;0.60;0.60;;;;;;;;;;1835229;76;26266;-54
2022/11/02 00:54:49;;;;;;;0.50;0.50;;;;;;;;;;1831619;76;26273;-50
2022/11/02 00:57:16;;;;;;;0.40;0.40;;;;;;;;;;1823313;76;26275;-50
2022/11/02 00:59:43;;;;;;;0.60;0.60;;;;;;;;;;1819160;76;26323;-48
2022/11/02 01:02:11;;;;;;;0.60;0.60;;;;;;;;;;1825748;76;26257;-52
2022/11/02 01:04:38;;;;;;;0.35;0.35;;;;;;;;;;1816692;76;26203;-53
2022/11/02 01:07:05;;;;;;;0.40;0.40;;;;;;;;;;1811883;77;26281;-53
2022/11/02 01:09:33;;;;;;;0.47;0.47;;;;;;;;;;1821420;76;26320;-51
2022/11/02 01:12:01;;;;;;;0.50;0.50;;;;;;;;;;1822849;77;25810;-51
2022/11/02 01:14:28;;;;;;;0.47;0.47;;;;;;;;;;1830787;76;26208;-55
2022/11/02 01:16:56;;;;;;;0.45;0.45;;;;;;;;;;1833213;77;26262;-54
2022/11/02 01:19:24;;;;;;;0.40;0.40;;;;;;;;;;1813105;76;27399;-53
2022/11/02 01:21:51;;;;;;;0.50;0.50;;;;;;;;;;1821202;76;25256;-52
2022/11/02 01:24:19;;;;;;;0.40;0.40;;;;;;;;;;1822964;76;26254;-54
2022/11/02 01:26:47;;;;;;;0.40;0.40;;;;;;;;;;1820935;76;26204;-56
2022/11/02 01:29:15;;;;;;;0.33;0.33;;;;;;;;;;1818256;76;26270;-54
2022/11/02 01:31:42;;;;;;;0.40;0.40;;;;;;;;;;1811198;77;26312;-53
2022/11/02 01:34:10;;;;;;;0.50;0.50;;;;;;;;;;1823077;76;26318;-55
2022/11/02 01:36:38;;;;;;;0.30;0.30;;;;;;;;;;1811078;76;26319;-51
2022/11/02 01:39:05;;;;;;;0.40;0.40;;;;;;;;;;1807654;76;26264;-55
2022/11/02 01:41:32;;;;;;;0.50;0.50;;;;;;;;;;1812991;76;26363;-53
2022/11/02 01:44:01;;;;;;;0.50;0.50;;;;;;;;;;1822777;76;26241;-53
2022/11/02 01:46:30;;;;;;;0.50;0.50;;;;;;;;;;1819315;76;26254;-51
2022/11/02 01:49:02;;;;;;;0.55;0.55;;;;;;;;;;1825669;77;26287;-49
2022/11/02 01:51:31;;;;;;;0.30;0.30;;;;;;;;;;1819856;77;27013;-54
2022/11/02 01:54:00;;;;;;;0.50;0.50;;;;;;;;;;1817962;76;25259;-54
2022/11/02 01:56:29;;;;;;;0.40;0.40;;;;;;;;;;1821368;76;26293;-53
2022/11/02 01:58:57;;;;;;;0.35;0.35;;;;;;;;;;1819761;76;26309;-49
2022/11/02 02:01:25;;;;;;;0.30;0.30;;;;;;;;;;1819034;77;26269;-49
2022/11/02 02:03:53;;;;;;;0.40;0.40;;;;;;;;;;1816268;76;26249;-50
2022/11/02 02:06:20;;;;;;;0.40;0.40;;;;;;;;;;1821631;76;26702;-55
2022/11/02 02:08:48;;;;;;;0.30;0.30;;;;;;;;;;1826160;76;26322;-53
2022/11/02 02:11:32;;;;;;;0.40;0.40;;;;;;;;;;1823577;76;25489;-51
2022/11/02 02:14:07;;;;;;;0.40;0.40;;;;;;;;;;1826870;76;26333;-53
2022/11/02 02:16:36;;;;;;;0.60;0.60;;;;;;;;;;1785119;76;50117;-88
2022/11/02 02:19:05;;;;;;;0.40;0.40;;;;;;;;;;1800048;78;25517;-86
2022/11/02 02:21:52;;;;;;;0.40;0.40;;;;;;;;;;1814642;78;26720;-88
2022/11/02 02:24:30;;;;;;;0.30;0.30;;;;;;;;;;1819036;78;26206;-91
2022/11/02 02:26:59;;;;;;;0.40;0.40;;;;;;;;;;1821740;77;26245;-86
2022/11/02 02:29:39;;;;;;;0.40;0.40;;;;;;;;;;1824108;77;26214;-87
2022/11/02 02:32:08;;;;;;;0.50;0.50;;;;;;;;;;1804219;77;26242;-86
2022/11/02 02:34:37;;;;;;;0.50;0.50;;;;;;;;;;1771104;78;26312;-88
2022/11/02 02:37:08;;;;;;;0.50;0.50;;;;;;;;;;1805790;78;26259;-86
2022/11/02 02:39:46;;;;;;;0.30;0.30;;;;;;;;;;1788804;78;27080;-86
2022/11/02 02:42:15;;;;;;;0.40;0.40;;;;;;;;;;1804767;78;26830;-87
2022/11/02 02:44:44;;;;;;;0.40;0.40;;;;;;;;;;1804647;78;26217;-86
2022/11/02 02:47:13;;;;;;;0.30;0.30;;;;;;;;;;1810852;78;26308;-85
2022/11/02 02:49:42;;;;;;;0.30;0.30;;;;;;;;;;1800442;78;26253;-86
2022/11/02 02:52:09;;;;;;;0.40;0.40;;;;;;;;;;1805910;78;26315;-85
2022/11/02 02:54:38;;;;;;;0.40;0.40;;;;;;;;;;1783062;78;27311;-87
2022/11/02 02:57:06;;;;;;;0.30;0.30;;;;;;;;;;1796921;77;26257;-86
2022/11/02 02:59:35;;;;;;;0.45;0.45;;;;;;;;;;1805703;78;26306;-85
2022/11/02 03:02:04;;;;;;;0.50;0.50;;;;;;;;;;1805335;77;26310;-86
2022/11/02 03:04:31;;;;;;;0.50;0.50;;;;;;;;;;1805510;78;26276;-86
2022/11/02 03:07:00;;;;;;;0.50;0.50;;;;;;;;;;1786836;78;26361;-89
2022/11/02 03:09:31;;;;;;;0.50;0.50;;;;;;;;;;1791904;79;26271;-87
2022/11/02 03:12:05;;;;;;;0.42;0.42;;;;;;;;;;1779559;78;26259;-86
2022/11/02 03:14:43;;;;;;;0.37;0.37;;;;;;;;;;1793200;78;26337;-86
2022/11/02 03:17:15;;;;;;;0.35;0.35;;;;;;;;;;1782051;78;26251;-86
2022/11/02 03:19:52;;;;;;;0.40;0.40;;;;;;;;;;1798619;77;26616;-85
2022/11/02 03:22:21;;;;;;;0.40;0.40;;;;;;;;;;1806770;79;26334;-86
2022/11/02 03:24:53;;;;;;;0.50;0.50;;;;;;;;;;1787336;78;26311;-86
2022/11/02 03:27:22;;;;;;;0.42;0.42;;;;;;;;;;1786863;77;26321;-86
2022/11/02 03:29:54;;;;;;;0.40;0.40;;;;;;;;;;1792306;79;26341;-85
2022/11/02 03:32:23;;;;;;;0.40;0.40;;;;;;;;;;1811628;77;26338;-86
2022/11/02 03:34:55;;;;;;;0.40;0.40;;;;;;;;;;1784046;78;26326;-85
2022/11/02 03:37:32;;;;;;;0.40;0.40;;;;;;;;;;1791288;78;25711;-86
2022/11/02 03:40:05;;;;;;;0.50;0.50;;;;;;;;;;1804231;78;26260;-86
2022/11/02 03:42:33;;;;;;;0.60;0.60;;;;;;;;;;1808034;77;26720;-86
2022/11/02 03:45:02;;;;;;;0.50;0.50;;;;;;;;;;1798444;77;26345;-88
2022/11/02 03:47:32;;;;;;;0.40;0.40;;;;;;;;;;1784761;78;26720;-86
2022/11/02 03:50:00;;;;;;;0.47;0.47;;;;;;;;;;1793002;78;26280;-86
2022/11/02 03:52:30;;;;;;;0.47;0.47;;;;;;;;;;1800348;78;26295;-87
2022/11/02 03:55:01;;;;;;;0.45;0.45;;;;;;;;;;1807158;77;26861;-86
2022/11/02 03:57:30;;;;;;;0.65;0.65;;;;;;;;;;1820832;77;26353;-86
2022/11/02 04:00:07;;;;;;;0.55;0.55;;;;;;;;;;1805858;78;26279;-88
2022/11/02 04:02:36;;;;;;;0.53;0.53;;;;;;;;;;1794194;78;26764;-87
2022/11/02 04:05:04;;;;;;;0.60;0.60;;;;;;;;;;1812781;77;26248;-88
2022/11/02 04:08:19;;;;;;;0.50;0.50;;;;;;;;;;1822204;77;26544;-87
2022/11/02 04:10:02;;;;;;;0.50;0.50;;;;;;;;;;1813994;76;26164;-86
2022/11/02 04:15:15;;;;;;;0.50;0.50;;;;;;;;;;1808550;79;26358;-88
2022/11/02 04:20:28;;;;;;;0.60;0.60;;;;;;;;;;1788893;77;26445;-89
2022/11/02 04:25:40;;;;;;;0.60;0.60;;;;;;;;;;1794268;78;26273;-87
2022/11/02 04:28:08;;;;;;;0.53;0.53;;;;;;;;;;1788086;79;26278;-87
2022/11/02 04:30:36;;;;;;;0.60;0.60;;;;;;;;;;1812243;77;26306;-89
2022/11/02 04:35:48;;;;;;;0.47;0.47;;;;;;;;;;1801934;78;26297;-87
2022/11/02 04:43:47;;;;;;;0.60;0.60;;;;;;;;;;1811549;77;26300;-87
2022/11/02 04:46:14;;;;;;;0.50;0.50;;;;;;;;;;1808278;78;26314;-87
2022/11/02 04:48:41;;;;;;;0.55;0.55;;;;;;;;;;1808700;78;26764;-86
2022/11/02 04:51:08;;;;;;;0.80;0.80;;;;;;;;;;1794746;78;26215;-87
2022/11/02 04:53:36;;;;;;;0.60;0.60;;;;;;;;;;1801577;77;26249;-87
2022/11/02 04:56:03;;;;;;;0.50;0.50;;;;;;;;;;1838408;77;26318;-87
2022/11/02 04:58:30;;;;;;;0.70;0.70;;;;;;;;;;1815523;77;26815;-87
2022/11/02 05:00:57;;;;;;;0.57;0.57;;;;;;;;;;1808547;78;26322;-87
2022/11/02 05:03:25;;;;;;;0.60;0.60;;;;;;;;;;1807065;78;26274;-87
2022/11/02 05:05:55;;;;;;;0.70;0.70;;;;;;;;;;1815573;77;26295;-89
2022/11/02 05:08:22;;;;;;;0.65;0.65;;;;;;;;;;1805905;78;26275;-87
2022/11/02 05:10:49;;;;;;;0.70;0.70;;;;;;;;;;1795802;78;25673;-86
2022/11/02 05:13:17;;;;;;;0.60;0.60;;;;;;;;;;1801112;78;25334;-86
2022/11/02 05:15:44;;;;;;;0.68;0.68;;;;;;;;;;1780498;79;26291;-88
2022/11/02 05:18:11;;;;;;;0.70;0.70;;;;;;;;;;1797849;78;26393;-90
2022/11/02 05:20:38;;;;;;;0.53;0.53;;;;;;;;;;1778852;78;26271;-87
2022/11/02 05:23:06;;;;;;;0.68;0.68;;;;;;;;;;1804767;78;26276;-87
2022/11/02 05:25:33;;;;;;;0.50;0.50;;;;;;;;;;1794131;77;26366;-87
2022/11/02 05:28:00;;;;;;;0.68;0.68;;;;;;;;;;1799997;78;26215;-88
2022/11/02 05:30:28;;;;;;;0.70;0.70;;;;;;;;;;1792922;78;26676;-86
2022/11/02 05:32:56;;;;;;;0.60;0.60;;;;;;;;;;1789507;78;26770;-87
2022/11/02 05:35:23;;;;;;;0.60;0.60;;;;;;;;;;1789005;78;26857;-87
2022/11/02 05:37:51;;;;;;;0.70;0.70;;;;;;;;;;1779375;79;25257;-87
2022/11/02 05:40:18;;;;;;;0.60;0.60;;;;;;;;;;1789192;78;26346;-88
2022/11/02 05:42:45;;;;;;;0.53;0.53;;;;;;;;;;1788267;79;26213;-86
2022/11/02 05:45:13;;;;;;;0.80;0.80;;;;;;;;;;1806257;77;26256;-87
2022/11/02 05:47:40;;;;;;;0.60;0.60;;;;;;;;;;1795790;78;26271;-86
2022/11/02 05:50:09;;;;;;;0.65;0.65;;;;;;;;;;1779445;78;26371;-88
2022/11/02 05:52:36;;;;;;;0.62;0.62;;;;;;;;;;1806129;78;26398;-89
2022/11/02 05:55:04;;;;;;;0.65;0.65;;;;;;;;;;1806555;78;26279;-87
2022/11/02 05:57:31;;;;;;;0.53;0.53;;;;;;;;;;1806765;79;26268;-87
2022/11/02 05:59:58;;;;;;;0.70;0.70;;;;;;;;;;1806343;79;26261;-87
2022/11/02 06:02:26;;;;;;;0.78;0.78;;;;;;;;;;1806319;78;26325;-87
2022/11/02 06:04:53;;;;;;;0.68;0.68;;;;;;;;;;1802716;78;26280;-89
2022/11/02 06:07:20;;;;;;;0.70;0.70;;;;;;;;;;1791503;78;26247;-88
2022/11/02 06:09:47;;;;;;;0.57;0.57;;;;;;;;;;1787581;78;26176;-86
2022/11/02 06:12:15;;;;;;;0.62;0.62;;;;;;;;;;1791818;79;26339;-87
2022/11/02 06:14:42;;;;;;;0.78;0.78;;;;;;;;;;1805832;79;26311;-89
2022/11/02 06:17:09;;;;;;;0.70;0.70;;;;;;;;;;1773671;78;26255;-87
2022/11/02 06:19:36;;;;;;;0.60;0.60;;;;;;;;;;1755638;79;26235;-87
2022/11/02 06:22:04;;;;;;;0.60;0.60;;;;;;;;;;1772846;80;26466;-87
2022/11/02 06:24:31;;;;;;;0.72;0.72;;;;;;;;;;1769363;81;26794;-88
2022/11/02 06:26:58;;;;;;;0.70;0.70;;;;;;;;;;1775761;79;26697;-90
2022/11/02 06:29:25;;;;;;;0.50;0.50;;;;;;;;;;1771385;79;26040;-86
2022/11/02 06:31:53;;;;;;;0.53;0.53;;;;;;;;;;1790860;79;26724;-87
2022/11/02 06:34:20;;;;;;;0.65;0.65;;;;;;;;;;1777720;79;26274;-87
2022/11/02 06:36:47;;;;;;;0.70;0.70;;;;;;;;;;1760040;81;26347;-90
2022/11/02 06:39:14;;;;;;;0.72;0.72;;;;;;;;;;1768187;79;26316;-86
2022/11/02 06:41:42;;;;;;;0.60;0.60;;;;;;;;;;1765854;80;26257;-87
2022/11/02 06:44:09;;;;;;;0.78;0.78;;;;;;;;;;1780954;79;26303;-86
2022/11/02 06:46:36;;;;;;;0.70;0.70;;;;;;;;;;1776225;79;26344;-90
2022/11/02 06:49:03;;;;;;;0.72;0.72;;;;;;;;;;1782505;79;26168;-87
2022/11/02 06:51:31;;;;;;;0.70;0.70;;;;;;;;;;1777346;79;26258;-87
2022/11/02 06:53:58;;;;;;;0.80;0.80;;;;;;;;;;1766116;80;26289;-87
2022/11/02 06:56:25;;;;;;;0.70;0.70;;;;;;;;;;1765425;79;26321;-88
2022/11/02 06:58:52;;;;;;;0.70;0.70;;;;;;;;;;1776124;79;26337;-89
2022/11/02 07:01:20;;;;;;;0.70;0.70;;;;;;;;;;1781427;79;26295;-87
2022/11/02 07:03:47;;;;;;;0.60;0.60;;;;;;;;;;1778733;79;26386;-87
2022/11/02 07:06:14;;;;;;;0.75;0.75;;;;;;;;;;1760097;79;26289;-87
2022/11/02 07:08:41;;;;;;;0.62;0.62;;;;;;;;;;1768207;80;26717;-89
2022/11/02 07:11:10;;;;;;;0.65;0.65;;;;;;;;;;1758645;80;26281;-87
2022/11/02 07:13:37;;;;;;;0.68;0.68;;;;;;;;;;1785331;79;26330;-87
2022/11/02 07:16:05;;;;;;;0.70;0.70;;;;;;;;;;1762594;79;26296;-87
2022/11/02 07:18:32;;;;;;;0.70;0.70;;;;;;;;;;1780218;79;26405;-87
2022/11/02 07:21:00;;;;;;;0.68;0.68;;;;;;;;;;1806637;78;26350;-90
2022/11/02 07:23:27;;;;;;;0.80;0.80;;;;;;;;;;1786532;78;27168;-87
2022/11/02 07:25:55;;;;;;;0.70;0.70;;;;;;;;;;1811110;77;26220;-87
2022/11/02 07:28:22;;;;;;;0.93;0.93;;;;;;;;;;1794831;79;26119;-87
2022/11/02 07:30:51;;;;;;;0.70;0.70;;;;;;;;;;1789516;78;26796;-87
2022/11/02 07:33:18;;;;;;;0.60;0.60;;;;;;;;;;1794550;79;27155;-87
2022/11/02 07:35:45;;;;;;;0.80;0.80;;;;;;;;;;1804467;77;27064;-87
2022/11/02 07:38:13;;;;;;;0.80;0.80;;;;;;;;;;1812087;77;26380;-87
2022/11/02 07:40:40;;;;;;;0.80;0.80;;;;;;;;;;1791269;78;26338;-87
2022/11/02 07:43:07;;;;;;;0.60;0.60;;;;;;;;;;1808287;78;26217;-89
2022/11/02 07:45:35;;;;;;;0.80;0.80;;;;;;;;;;1804304;78;26349;-88
2022/11/02 07:48:02;;;;;;;0.70;0.70;;;;;;;;;;1796115;77;27465;-89
2022/11/02 07:50:29;;;;;;;0.82;0.82;;;;;;;;;;1784314;78;26766;-87
2022/11/02 07:52:57;;;;;;;0.85;0.85;;;;;;;;;;1780937;78;26345;-88
2022/11/02 07:55:26;;;;;;;0.78;0.78;;;;;;;;;;1792043;77;26318;-88
2022/11/02 07:57:54;;;;;;;0.72;0.72;;;;;;;;;;1811265;77;26259;-87
2022/11/02 08:00:22;;;;;;;0.65;0.65;;;;;;;;;;1797023;77;26770;-87
2022/11/02 08:02:50;;;;;;;0.80;0.80;;;;;;;;;;1781168;79;26325;-87
2022/11/02 08:05:18;;;;;;;0.82;0.82;;;;;;;;;;1798319;78;26267;-87
2022/11/02 08:07:45;;;;;;;0.80;0.80;;;;;;;;;;1781768;79;26344;-89
2022/11/02 08:10:12;;;;;;;0.80;0.80;;;;;;;;;;1808390;79;26579;-87
2022/11/02 08:12:39;;;;;;;0.68;0.68;;;;;;;;;;1807677;77;26660;-87
2022/11/02 08:15:07;;;;;;;0.80;0.80;;;;;;;;;;1799605;77;26660;-88
2022/11/02 08:17:34;;;;;;;0.70;0.70;;;;;;;;;;1804436;77;26341;-88
2022/11/02 08:20:01;;;;;;;0.60;0.60;;;;;;;;;;1792299;78;26228;-89
2022/11/02 08:22:29;;;;;;;0.82;0.82;;;;;;;;;;1809058;77;25575;-87
2022/11/02 08:24:56;;;;;;;0.70;0.70;;;;;;;;;;1808527;78;25845;-88
2022/11/02 08:27:23;;;;;;;0.70;0.70;;;;;;;;;;1799462;77;26793;-87
2022/11/02 08:29:51;;;;;;;0.70;0.70;;;;;;;;;;1791949;77;26283;-88
2022/11/02 08:32:18;;;;;;;0.62;0.62;;;;;;;;;;1812899;78;26331;-87
2022/11/02 08:34:46;;;;;;;0.70;0.70;;;;;;;;;;1793023;76;26246;-88
2022/11/02 08:37:13;;;;;;;0.75;0.75;;;;;;;;;;1794117;78;26363;-90
2022/11/02 08:39:40;;;;;;;0.90;0.90;;;;;;;;;;1820981;76;26330;-89
2022/11/02 08:42:08;;;;;;;0.70;0.70;;;;;;;;;;1793908;78;26341;-87
2022/11/02 08:44:35;;;;;;;0.80;0.80;;;;;;;;;;1799566;78;26376;-89
2022/11/02 08:47:02;;;;;;;0.70;0.70;;;;;;;;;;1786266;78;25841;-87
2022/11/02 08:49:29;;;;;;;0.70;0.70;;;;;;;;;;1780594;78;26360;-87
2022/11/02 08:51:57;;;;;;;0.80;0.80;;;;;;;;;;1807976;77;26304;-87
2022/11/02 08:54:24;;;;;;;0.60;0.60;;;;;;;;;;1808371;78;26245;-87
2022/11/02 08:56:51;;;;;;;0.60;0.60;;;;;;;;;;1826251;77;26786;-89
2022/11/02 08:59:18;;;;;;;0.78;0.78;;;;;;;;;;1780493;78;25753;-87
2022/11/02 09:01:46;;;;;;;0.70;0.70;;;;;;;;;;1780982;78;26759;-86
2022/11/02 09:04:13;;;;;;;0.80;0.80;;;;;;;;;;1809814;77;26756;-86
2022/11/02 09:06:40;;;;;;;0.70;0.70;;;;;;;;;;1790922;78;26923;-88
2022/11/02 09:09:07;;;;;;;0.50;0.50;;;;;;;;;;1796170;78;26787;-87
2022/11/02 09:11:35;;;;;;;0.72;0.72;;;;;;;;;;1785017;78;26268;-87
2022/11/02 09:14:02;;;;;;;0.70;0.70;;;;;;;;;;1793545;78;26394;-88
2022/11/02 09:16:30;;;;;;;0.65;0.65;;;;;;;;;;1786193;78;26332;-88
2022/11/02 09:18:57;;;;;;;0.60;0.60;;;;;;;;;;1796178;78;26382;-89
2022/11/02 09:21:24;;;;;;;0.60;0.60;;;;;;;;;;1792297;78;26268;-87
2022/11/02 09:23:51;;;;;;;0.62;0.62;;;;;;;;;;1794205;79;26772;-87
2022/11/02 09:26:19;;;;;;;0.60;0.60;;;;;;;;;;1798569;77;26276;-88
2022/11/02 09:28:46;;;;;;;0.60;0.60;;;;;;;;;;1808068;79;26201;-89
2022/11/02 09:31:13;;;;;;;0.80;0.80;;;;;;;;;;1802561;78;26291;-89
2022/11/02 09:33:40;;;;;;;0.70;0.70;;;;;;;;;;1788627;78;26275;-88
2022/11/02 09:36:08;;;;;;;0.70;0.70;;;;;;;;;;1782432;79;26287;-88
2022/11/02 09:38:35;;;;;;;0.60;0.60;;;;;;;;;;1800434;77;26867;-88
2022/11/02 09:41:10;;;;;;;0.70;0.70;;;;;;;;;;1799803;78;26330;-88
2022/11/02 09:43:51;;;;;;;0.70;0.70;;;;;;;;;;1790611;78;26733;-88
2022/11/02 09:46:20;;;;;;;0.70;0.70;;;;;;;;;;1795283;78;26299;-88
2022/11/02 09:48:55;;;;;;;0.60;0.60;;;;;;;;;;1781522;77;26263;-87
2022/11/02 09:51:26;;;;;;;0.60;0.60;;;;;;;;;;1792796;79;25513;-88
2022/11/02 09:53:58;;;;;;;0.70;0.70;;;;;;;;;;1782308;78;26282;-88
2022/11/02 09:56:26;;;;;;;0.70;0.70;;;;;;;;;;1797233;78;26330;-88
2022/11/02 09:58:54;;;;;;;0.68;0.68;;;;;;;;;;1800139;78;26338;-89
2022/11/02 10:01:35;;;;;;;0.60;0.60;;;;;;;;;;1796692;77;26079;-89
2022/11/02 10:04:16;;;;;;;0.70;0.70;;;;;;;;;;1781056;79;26251;-88
2022/11/02 10:06:45;;;;;;;0.70;0.70;;;;;;;;;;1799996;79;26341;-87
2022/11/02 10:09:14;;;;;;;0.70;0.70;;;;;;;;;;1781587;78;26307;-88
2022/11/02 10:11:48;;;;;;;0.65;0.65;;;;;;;;;;1829429;77;26755;-90
2022/11/02 10:14:17;;;;;;;0.70;0.70;;;;;;;;;;1800262;77;26333;-90
2022/11/02 10:16:46;;;;;;;0.60;0.60;;;;;;;;;;1777621;78;26283;-89
2022/11/02 10:19:15;;;;;;;0.70;0.70;;;;;;;;;;1800088;77;26437;-88
2022/11/02 10:21:44;;;;;;;0.75;0.75;;;;;;;;;;1808379;78;26252;-88
2022/11/02 10:24:12;;;;;;;0.50;0.50;;;;;;;;;;1804896;77;26267;-88
2022/11/02 10:26:42;;;;;;;0.70;0.70;;;;;;;;;;1793437;77;26302;-88
2022/11/02 10:29:13;;;;;;;0.80;0.80;;;;;;;;;;1784651;78;26352;-88
2022/11/02 10:31:40;;;;;;;0.70;0.70;;;;;;;;;;1791961;79;25745;-88
2022/11/02 10:34:18;;;;;;;0.60;0.60;;;;;;;;;;1806609;78;26205;-88
2022/11/02 10:37:04;;;;;;;0.53;0.53;;;;;;;;;;1810874;77;26263;-89
2022/11/02 10:39:32;;;;;;;0.68;0.68;;;;;;;;;;1796915;78;26278;-88
2022/11/02 10:42:10;;;;;;;0.70;0.70;;;;;;;;;;1781641;77;26297;-88
2022/11/02 10:44:42;;;;;;;0.70;0.70;;;;;;;;;;1807419;77;26244;-88
2022/11/02 10:47:13;;;;;;;0.80;0.80;;;;;;;;;;1808064;77;26637;-88
2022/11/02 10:49:54;;;;;;;0.60;0.60;;;;;;;;;;1809101;79;26248;-90
2022/11/02 10:52:22;;;;;;;0.70;0.70;;;;;;;;;;1781688;79;26337;-87
2022/11/02 10:54:50;;;;;;;0.80;0.80;;;;;;;;;;1781540;79;26345;-87
2022/11/02 10:57:21;;;;;;;0.70;0.70;;;;;;;;;;1799179;78;26345;-88
2022/11/02 11:00:07;;;;;;;0.70;0.70;;;;;;;;;;1815200;77;26343;-88
2022/11/02 11:02:34;;;;;;;0.70;0.70;;;;;;;;;;1808959;79;26303;-88
2022/11/02 11:05:16;;;;;;;0.68;0.68;;;;;;;;;;1808944;78;26350;-90
2022/11/02 11:07:42;;;;;;;0.70;0.70;;;;;;;;;;1791051;78;26298;-88
2022/11/02 11:10:11;;;;;;;0.70;0.70;;;;;;;;;;1803514;77;26733;-89
2022/11/02 11:12:44;;;;;;;0.70;0.70;;;;;;;;;;1818270;78;26255;-88
2022/11/02 11:15:09;;;;;;;0.65;0.65;;;;;;;;;;1805309;78;26264;-90
2022/11/02 11:17:37;;;;;;;0.70;0.70;;;;;;;;;;1807007;78;26257;-88
2022/11/02 11:20:06;;;;;;;0.50;0.50;;;;;;;;;;1779695;78;26399;-90
2022/11/02 11:22:37;;;;;;;0.70;0.70;;;;;;;;;;1797951;78;26355;-88
2022/11/02 11:25:24;;;;;;;0.50;0.50;;;;;;;;;;1806560;79;26264;-88
2022/11/02 11:27:58;;;;;;;0.60;0.60;;;;;;;;;;1806722;78;26666;-89
2022/11/02 11:30:26;;;;;;;0.60;0.60;;;;;;;;;;1788701;78;26316;-89
2022/11/02 11:32:54;;;;;;;0.70;0.70;;;;;;;;;;1779584;79;25757;-89
2022/11/02 11:35:22;;;;;;;0.80;0.80;;;;;;;;;;1787956;78;26267;-88
2022/11/02 11:37:54;;;;;;;0.70;0.70;;;;;;;;;;1798805;78;26283;-89
2022/11/02 11:40:21;;;;;;;0.60;0.60;;;;;;;;;;1780273;78;26270;-88
2022/11/02 11:42:50;;;;;;;0.60;0.60;;;;;;;;;;1778080;78;26275;-91
2022/11/02 11:45:19;;;;;;;0.68;0.68;;;;;;;;;;1783525;78;26905;-89
2022/11/02 11:47:47;;;;;;;0.60;0.60;;;;;;;;;;1806800;78;26892;-88
2022/11/02 11:50:16;;;;;;;0.68;0.68;;;;;;;;;;1803082;78;26745;-87
2022/11/02 11:52:44;;;;;;;0.70;0.70;;;;;;;;;;1778019;79;26356;-88
2022/11/02 11:55:24;;;;;;;0.60;0.60;;;;;;;;;;1781401;79;26764;-87
2022/11/02 11:58:05;;;;;;;0.40;0.40;;;;;;;;;;1806455;78;27360;-88
2022/11/02 12:00:33;;;;;;;0.70;0.70;;;;;;;;;;1805296;79;26264;-88
2022/11/02 12:03:09;;;;;;;0.55;0.55;;;;;;;;;;1784759;78;26337;-88
2022/11/02 12:05:35;;;;;;;0.50;0.50;;;;;;;;;;1777754;79;26319;-87
2022/11/02 12:08:03;;;;;;;0.70;0.70;;;;;;;;;;1777259;78;26286;-88
2022/11/02 12:10:32;;;;;;;0.60;0.60;;;;;;;;;;1794931;78;26263;-88
2022/11/02 12:13:04;;;;;;;0.50;0.50;;;;;;;;;;1781318;79;26272;-91
2022/11/02 12:15:36;;;;;;;0.60;0.60;;;;;;;;;;1816848;78;27049;-90
2022/11/02 12:18:21;;;;;;;0.50;0.50;;;;;;;;;;1809325;77;26253;-88
2022/11/02 12:20:56;;;;;;;0.68;0.68;;;;;;;;;;1815262;77;26710;-88
2022/11/02 12:23:33;;;;;;;0.70;0.70;;;;;;;;;;1784828;79;26396;-88
2022/11/02 12:26:08;;;;;;;0.65;0.65;;;;;;;;;;1802331;78;26747;-88
2022/11/02 12:28:43;;;;;;;0.53;0.53;;;;;;;;;;1779299;79;25352;-88
2022/11/02 12:31:12;;;;;;;0.70;0.70;;;;;;;;;;1800944;78;26287;-88
2022/11/02 12:33:40;;;;;;;0.53;0.53;;;;;;;;;;1813572;77;26268;-89
2022/11/02 12:36:10;;;;;;;0.60;0.60;;;;;;;;;;1791434;79;26248;-88
2022/11/02 12:38:45;;;;;;;0.70;0.70;;;;;;;;;;1790712;78;26244;-88
2022/11/02 12:41:14;;;;;;;0.47;0.47;;;;;;;;;;1795083;78;26205;-87
2022/11/02 12:43:46;;;;;;;0.60;0.60;;;;;;;;;;1789538;78;26301;-88
2022/11/02 12:46:14;;;;;;;0.80;0.80;;;;;;;;;;1782494;78;26553;-88
2022/11/02 12:48:43;;;;;;;0.65;0.65;;;;;;;;;;1800803;78;26366;-88
2022/11/02 12:51:12;;;;;;;0.70;0.70;;;;;;;;;;1795447;78;26315;-87
2022/11/02 12:53:41;;;;;;;0.70;0.70;;;;;;;;;;1786124;79;26279;-88
2022/11/02 12:56:09;;;;;;;0.70;0.70;;;;;;;;;;1796104;78;26208;-88
2022/11/02 12:58:38;;;;;;;0.60;0.60;;;;;;;;;;1810128;78;26201;-88
2022/11/02 13:01:07;;;;;;;0.80;0.80;;;;;;;;;;1809808;78;26265;-88
2022/11/02 13:03:36;;;;;;;0.65;0.65;;;;;;;;;;1783154;78;26278;-88
2022/11/02 13:06:06;;;;;;;0.70;0.70;;;;;;;;;;1795941;78;26282;-88
2022/11/02 13:08:41;;;;;;;0.62;0.62;;;;;;;;;;1810126;78;26336;-88
2022/11/02 13:11:10;;;;;;;0.70;0.70;;;;;;;;;;1794739;78;26681;-88
2022/11/02 13:13:39;;;;;;;0.70;0.70;;;;;;;;;;1804929;77;26249;-87
2022/11/02 13:16:07;;;;;;;0.60;0.60;;;;;;;;;;1806794;78;26268;-89
2022/11/02 13:18:36;;;;;;;0.70;0.70;;;;;;;;;;1810430;78;26808;-88
2022/11/02 13:21:04;;;;;;;0.70;0.70;;;;;;;;;;1790371;78;26750;-88
2022/11/02 13:23:35;;;;;;;0.80;0.80;;;;;;;;;;1805868;78;26233;-88
2022/11/02 13:26:10;;;;;;;0.70;0.70;;;;;;;;;;1802116;78;26306;-88
2022/11/02 13:28:45;;;;;;;0.65;0.65;;;;;;;;;;1806482;78;26233;-88
2022/11/02 13:31:16;;;;;;;0.80;0.80;;;;;;;;;;1803631;78;26330;-89
2022/11/02 13:33:45;;;;;;;0.80;0.80;;;;;;;;;;1794865;78;26721;-88
2022/11/02 13:36:13;;;;;;;0.80;0.80;;;;;;;;;;1807068;78;26748;-88
2022/11/02 13:38:44;;;;;;;0.70;0.70;;;;;;;;;;1792165;78;25728;-87
2022/11/02 13:41:13;;;;;;;0.70;0.70;;;;;;;;;;1806569;79;26265;-88
2022/11/02 13:43:51;;;;;;;0.70;0.70;;;;;;;;;;1806517;79;27409;-87
2022/11/02 13:46:35;;;;;;;0.80;0.80;;;;;;;;;;1785967;78;26300;-88
2022/11/02 13:49:07;;;;;;;0.70;0.70;;;;;;;;;;1807317;79;26650;-87
2022/11/02 13:51:38;;;;;;;0.70;0.70;;;;;;;;;;1790515;78;26739;-86
2022/11/02 13:54:08;;;;;;;0.88;0.88;;;;;;;;;;1808149;78;26749;-87
2022/11/02 13:56:36;;;;;;;0.70;0.70;;;;;;;;;;1828686;77;26259;-88
2022/11/02 13:59:10;;;;;;;0.70;0.70;;;;;;;;;;1808305;78;26258;-88
2022/11/02 14:01:39;;;;;;;0.70;0.70;;;;;;;;;;1807344;78;26855;-87
2022/11/02 14:04:07;;;;;;;1.00;1.00;;;;;;;;;;1807905;77;26761;-89
2022/11/02 14:06:36;;;;;;;0.72;0.72;;;;;;;;;;1802233;78;26311;-87
2022/11/02 14:09:08;;;;;;;0.70;0.70;;;;;;;;;;1776426;79;26275;-90
2022/11/02 14:11:37;;;;;;;1.00;1.00;;;;;;;;;;1779165;79;26309;-88
2022/11/02 14:14:06;;;;;;;0.80;0.80;;;;;;;;;;1792857;78;26352;-89
2022/11/02 14:16:43;;;;;;;0.72;0.72;;;;;;;;;;1804484;78;26264;-87
2022/11/02 14:19:15;;;;;;;0.90;0.90;;;;;;;;;;1787909;79;26244;-88
2022/11/02 14:21:44;;;;;;;0.90;0.90;;;;;;;;;;1807914;78;26308;-89
2022/11/02 14:24:29;;;;;;;0.80;0.80;;;;;;;;;;1809200;79;26256;-88
2022/11/02 14:26:58;;;;;;;1.00;1.00;;;;;;;;;;1805047;77;26346;-88
2022/11/02 14:29:29;;;;;;;0.80;0.80;;;;;;;;;;1808929;79;26288;-88
2022/11/02 14:31:58;;;;;;;0.80;0.80;;;;;;;;;;1784636;79;26908;-89
2022/11/02 14:34:27;;;;;;;0.90;0.90;;;;;;;;;;1782081;78;27133;-88
2022/11/02 14:37:02;;;;;;;0.90;0.90;;;;;;;;;;1799150;78;26299;-88
2022/11/02 14:39:36;;;;;;;0.90;0.90;;;;;;;;;;1799792;77;26389;-88
2022/11/02 14:42:05;;;;;;;1.10;1.10;;;;;;;;;;1808376;77;26701;-88
2022/11/02 14:44:52;;;;;;;1.00;1.00;;;;;;;;;;1784037;78;26968;-88
2022/11/02 14:47:23;;;;;;;1.20;1.20;;;;;;;;;;1798781;79;27529;-88
2022/11/02 14:49:54;;;;;;;0.70;0.70;;;;;;;;;;1805107;77;26335;-87
2022/11/02 14:52:31;;;;;;;1.00;1.00;;;;;;;;;;1809539;76;25333;-88
2022/11/02 14:55:15;;;;;;;0.90;0.90;;;;;;;;;;1794396;77;26343;-90
2022/11/02 14:57:43;;;;;;;1.00;1.00;;;;;;;;;;1799004;77;26340;-91
2022/11/02 15:00:21;;;;;;;0.90;0.90;;;;;;;;;;1814076;77;26323;-91
2022/11/02 15:02:49;;;;;;;0.88;0.88;;;;;;;;;;1807757;77;26228;-88
2022/11/02 15:05:21;;;;;;;0.90;0.90;;;;;;;;;;1804352;78;27430;-88
2022/11/02 15:07:50;;;;;;;0.82;0.82;;;;;;;;;;1809410;78;26380;-88
2022/11/02 15:10:19;;;;;;;1.00;1.00;;;;;;;;;;1789984;78;26358;-88
2022/11/02 15:12:47;;;;;;;0.90;0.90;;;;;;;;;;1808007;78;26281;-88